sensor_id;sensor_type;location;lat;lon;timestamp;P1;P2;P0
61879;PMS7003;47817;52.798;27.544;2022-12-29T00:00:08;11.8;8.8;6.6
61879;PMS7003;47817;52.798;27.544;2022-12-29T00:04:41;11;7.4;6
61879;PMS7003;47817;52.798;27.544;2022-12-29T00:09:29;7.8;7.2;6
61879;PMS7003;47817;52.798;27.544;2022-12-29T00:14:45;9.6;6.4;5.2
61879;PMS7003;47817;52.798;27.544;2022-12-29T00:19:30;10.4;8.4;5.8
61879;PMS7003;47817;52.798;27.544;2022-12-29T00:25:10;10;7.5;5.5
61879;PMS7003;47817;52.798;27.544;2022-12-29T00:29:47;10;6.2;4.6
61879;PMS7003;47817;52.798;27.544;2022-12-29T00:34:57;8;6;5
61879;PMS7003;47817;52.798;27.544;2022-12-29T00:39:39;8.6;6;4.4
61879;PMS7003;47817;52.798;27.544;2022-12-29T00:44:29;8.2;6.2;4.4
61879;PMS7003;47817;52.798;27.544;2022-12-29T00:50:07;8.5;6.5;4.5
61879;PMS7003;47817;52.798;27.544;2022-12-29T00:54:30;7.8;6.2;4.6
61879;PMS7003;47817;52.798;27.544;2022-12-29T00:59:43;8.8;7.2;5.4
61879;PMS7003;47817;52.798;27.544;2022-12-29T01:04:33;6.8;6;5.4
61879;PMS7003;47817;52.798;27.544;2022-12-29T01:09:41;7.8;7.2;5
61879;PMS7003;47817;52.798;27.544;2022-12-29T01:15:11;5.8;4.8;4.2
61879;PMS7003;47817;52.798;27.544;2022-12-29T01:19:57;5.8;4.6;4
61879;PMS7003;47817;52.798;27.544;2022-12-29T01:24:59;9;6.2;4.6
61879;PMS7003;47817;52.798;27.544;2022-12-29T01:29:29;8.3;5.5;4.5
61879;PMS7003;47817;52.798;27.544;2022-12-29T01:35:05;7.4;5.4;4
61879;PMS7003;47817;52.798;27.544;2022-12-29T01:40:08;8.4;4.8;4
61879;PMS7003;47817;52.798;27.544;2022-12-29T01:45:03;7.2;5.2;4
61879;PMS7003;47817;52.798;27.544;2022-12-29T01:49:45;8.2;6;4
61879;PMS7003;47817;52.798;27.544;2022-12-29T01:54:30;7.8;4.4;3.6
61879;PMS7003;47817;52.798;27.544;2022-12-29T02:00:08;6.6;5.8;4
61879;PMS7003;47817;52.798;27.544;2022-12-29T02:05:10;8;5;4
61879;PMS7003;47817;52.798;27.544;2022-12-29T02:09:55;7.6;6.4;5
61879;PMS7003;47817;52.798;27.544;2022-12-29T02:14:58;9.4;6.8;4.6
61879;PMS7003;47817;52.798;27.544;2022-12-29T02:19:44;7.2;6.6;4.6
61879;PMS7003;47817;52.798;27.544;2022-12-29T02:25:21;8.5;5.5;4.3
61879;PMS7003;47817;52.798;27.544;2022-12-29T02:30:15;8;6.4;4.8
61879;PMS7003;47817;52.798;27.544;2022-12-29T02:34:39;8;6.4;4.8
61879;PMS7003;47817;52.798;27.544;2022-12-29T02:39:38;9.2;7.2;5.6
61879;PMS7003;47817;52.798;27.544;2022-12-29T02:45:04;9;5.6;4
61879;PMS7003;47817;52.798;27.544;2022-12-29T02:50:14;9.3;7.8;5.3
61879;PMS7003;47817;52.798;27.544;2022-12-29T02:55:13;10.8;8;6.2
61879;PMS7003;47817;52.798;27.544;2022-12-29T03:00:00;10.8;8;6.2
61879;PMS7003;47817;52.798;27.544;2022-12-29T03:05:08;10;6.8;4.8
61879;PMS7003;47817;52.798;27.544;2022-12-29T03:09:43;6.8;6.4;4.8
61879;PMS7003;47817;52.798;27.544;2022-12-29T03:15:12;9;6.4;4
61879;PMS7003;47817;52.798;27.544;2022-12-29T03:20:14;8.2;6;4.6
61879;PMS7003;47817;52.798;27.544;2022-12-29T03:24:38;8.2;6;4.6
61879;PMS7003;47817;52.798;27.544;2022-12-29T03:29:48;24.8;15.2;10.2
61879;PMS7003;47817;52.798;27.544;2022-12-29T03:34:37;14.8;9.3;6.3
61879;PMS7003;47817;52.798;27.544;2022-12-29T03:40:13;11;7.4;5.2
61879;PMS7003;47817;52.798;27.544;2022-12-29T03:45:09;11;7.4;5.2
61879;PMS7003;47817;52.798;27.544;2022-12-29T03:49:59;25.8;19;13.2
61879;PMS7003;47817;52.798;27.544;2022-12-29T03:55:01;22;18.4;11.8
61879;PMS7003;47817;52.798;27.544;2022-12-29T03:59:29;9.8;6.6;5.6
61879;PMS7003;47817;52.798;27.544;2022-12-29T04:05:12;34.6;26;16.2
61879;PMS7003;47817;52.798;27.544;2022-12-29T04:09:59;34.6;26;16.2
61879;PMS7003;47817;52.798;27.544;2022-12-29T04:14:29;20;14.6;9.8
61879;PMS7003;47817;52.798;27.544;2022-12-29T04:19:47;12.2;8;6
61879;PMS7003;47817;52.798;27.544;2022-12-29T04:24:49;7;6.8;4.4
61879;PMS7003;47817;52.798;27.544;2022-12-29T04:30:11;8;7.4;5.4
61879;PMS7003;47817;52.798;27.544;2022-12-29T04:35:11;8;6.8;4.8
61879;PMS7003;47817;52.798;27.544;2022-12-29T04:39:59;8;6.8;4.8
61879;PMS7003;47817;52.798;27.544;2022-12-29T04:45:01;7.4;6;5.2
61879;PMS7003;47817;52.798;27.544;2022-12-29T04:49:29;11.8;7.3;5.8
61879;PMS7003;47817;52.798;27.544;2022-12-29T04:54:57;9.2;7.4;5.6
61879;PMS7003;47817;52.798;27.544;2022-12-29T05:00:10;7;5.8;4.6
61879;PMS7003;47817;52.798;27.544;2022-12-29T05:04:29;9.4;6.8;5.2
61879;PMS7003;47817;52.798;27.544;2022-12-29T05:09:45;8.8;7.8;6.2
61879;PMS7003;47817;52.798;27.544;2022-12-29T05:14:51;7.2;6;4.8
61879;PMS7003;47817;52.798;27.544;2022-12-29T05:20:11;8.6;7;5.4
61879;PMS7003;47817;52.798;27.544;2022-12-29T05:25:10;8.6;7;5.4
61879;PMS7003;47817;52.798;27.544;2022-12-29T05:29:57;10.2;7.8;6
61879;PMS7003;47817;52.798;27.544;2022-12-29T05:35:01;11.4;9.4;7.2
61879;PMS7003;47817;52.798;27.544;2022-12-29T05:39:39;11.5;9;6.5
61879;PMS7003;47817;52.798;27.544;2022-12-29T05:44:51;11.8;8;6.4
61879;PMS7003;47817;52.798;27.544;2022-12-29T05:49:59;9;8;5.8
61879;PMS7003;47817;52.798;27.544;2022-12-29T05:54:29;11.8;7.8;5.4
61879;PMS7003;47817;52.798;27.544;2022-12-29T05:59:39;11;7.2;5.4
61879;PMS7003;47817;52.798;27.544;2022-12-29T06:05:11;14.2;10.8;8.2
61879;PMS7003;47817;52.798;27.544;2022-12-29T06:10:11;10.6;9;6.4
61879;PMS7003;47817;52.798;27.544;2022-12-29T06:14:37;10.6;9;6.4
61879;PMS7003;47817;52.798;27.544;2022-12-29T06:19:59;14.4;11.2;7.2
61879;PMS7003;47817;52.798;27.544;2022-12-29T06:24:47;10.5;8;5.5
61879;PMS7003;47817;52.798;27.544;2022-12-29T06:29:38;9.8;7.8;5.8
61879;PMS7003;47817;52.798;27.544;2022-12-29T06:35:01;12.8;8.8;6.4
61879;PMS7003;47817;52.798;27.544;2022-12-29T06:39:51;10.2;8.6;6
61879;PMS7003;47817;52.798;27.544;2022-12-29T06:44:39;11.6;9.4;7.6
61879;PMS7003;47817;52.798;27.544;2022-12-29T06:49:49;13.6;9.8;7.8
61879;PMS7003;47817;52.798;27.544;2022-12-29T06:55:04;12;9.5;7.5
61879;PMS7003;47817;52.798;27.544;2022-12-29T07:00:10;12.6;8.2;6.8
61879;PMS7003;47817;52.798;27.544;2022-12-29T07:04:47;12.8;10.2;7
61879;PMS7003;47817;52.798;27.544;2022-12-29T07:10:02;11.2;8.2;7.2
61879;PMS7003;47817;52.798;27.544;2022-12-29T07:14:47;12.2;9.6;7
61879;PMS7003;47817;52.798;27.544;2022-12-29T07:19:37;14;9;7.8
61879;PMS7003;47817;52.798;27.544;2022-12-29T07:25:11;15.4;10.8;8.2
61879;PMS7003;47817;52.798;27.544;2022-12-29T07:30:02;15.4;10.8;8.2
61879;PMS7003;47817;52.798;27.544;2022-12-29T07:34:29;12.2;9.4;7.2
61879;PMS7003;47817;52.798;27.544;2022-12-29T07:39:49;13.2;10.6;8
61879;PMS7003;47817;52.798;27.544;2022-12-29T07:45:11;10.4;8;6.6
61879;PMS7003;47817;52.798;27.544;2022-12-29T07:50:11;13.6;12.2;9.4
61879;PMS7003;47817;52.798;27.544;2022-12-29T07:54:29;13.6;12.2;9.4
61879;PMS7003;47817;52.798;27.544;2022-12-29T08:00:02;15.2;12;8.8
61879;PMS7003;47817;52.798;27.544;2022-12-29T08:04:51;12;8.6;7
61879;PMS7003;47817;52.798;27.544;2022-12-29T08:09:39;15.4;11.6;8.6
61879;PMS7003;47817;52.798;27.544;2022-12-29T08:15:02;16.2;12.6;10
61879;PMS7003;47817;52.798;27.544;2022-12-29T08:20:04;18.8;14.5;10
61879;PMS7003;47817;52.798;27.544;2022-12-29T08:24:51;15.8;14.6;11.4
61879;PMS7003;47817;52.798;27.544;2022-12-29T08:30:06;18;13.6;9.8
61879;PMS7003;47817;52.798;27.544;2022-12-29T08:35:13;15;13.2;9.4
61879;PMS7003;47817;52.798;27.544;2022-12-29T08:40:00;15;13.2;9.4
61879;PMS7003;47817;52.798;27.544;2022-12-29T08:44:29;14.6;12;9
61879;PMS7003;47817;52.798;27.544;2022-12-29T08:50:13;13.6;11.2;9.2
61879;PMS7003;47817;52.798;27.544;2022-12-29T08:54:51;13.6;11.2;9.2
61879;PMS7003;47817;52.798;27.544;2022-12-29T09:34:29;15.5;10.5;7.5
61879;PMS7003;47817;52.798;27.544;2022-12-29T09:39:39;14.5;11.5;8.3
61879;PMS7003;47817;52.798;27.544;2022-12-29T09:44:44;17.4;11.8;7.4
61879;PMS7003;47817;52.798;27.544;2022-12-29T09:49:52;13;10.5;8.3
61879;PMS7003;47817;52.798;27.544;2022-12-29T09:55:14;13;10;7.2
61879;PMS7003;47817;52.798;27.544;2022-12-29T10:00:13;11;8.6;7.2
61879;PMS7003;47817;52.798;27.544;2022-12-29T10:04:30;11;8.6;7.2
61879;PMS7003;47817;52.798;27.544;2022-12-29T10:09:41;15.2;10.2;7.4
61879;PMS7003;47817;52.798;27.544;2022-12-29T10:14:53;14.8;11.8;8.3
61879;PMS7003;47817;52.798;27.544;2022-12-29T10:19:50;11.4;9;6.8
61879;PMS7003;47817;52.798;27.544;2022-12-29T10:24:40;10.8;8.4;6.4
61879;PMS7003;47817;52.798;27.544;2022-12-29T10:29:50;11.2;9.6;7.2
61879;PMS7003;47817;52.798;27.544;2022-12-29T10:34:42;8.4;7;5.4
61879;PMS7003;47817;52.798;27.544;2022-12-29T10:39:41;9.2;8.2;6
61879;PMS7003;47817;52.798;27.544;2022-12-29T10:45:12;8.2;6.8;5.4
61879;PMS7003;47817;52.798;27.544;2022-12-29T10:50:00;8.2;6.8;5.4
61879;PMS7003;47817;52.798;27.544;2022-12-29T10:54:51;10.3;7.8;5.8
61879;PMS7003;47817;52.798;27.544;2022-12-29T10:59:30;10.2;8;6.2
61879;PMS7003;47817;52.798;27.544;2022-12-29T11:04:51;11.8;9;6.4
61879;PMS7003;47817;52.798;27.544;2022-12-29T11:10:15;12.6;9.6;7.2
61879;PMS7003;47817;52.798;27.544;2022-12-29T11:15:14;11.8;9.2;7
61879;PMS7003;47817;52.798;27.544;2022-12-29T11:19:40;11.8;9.2;7
61879;PMS7003;47817;52.798;27.544;2022-12-29T11:24:43;11;9.4;6.8
61879;PMS7003;47817;52.798;27.544;2022-12-29T11:29:52;10.6;8.8;6.6
61879;PMS7003;47817;52.798;27.544;2022-12-29T11:35:17;12;8.8;6.6
61879;PMS7003;47817;52.798;27.544;2022-12-29T11:40:15;8.6;7.4;6
61879;PMS7003;47817;52.798;27.544;2022-12-29T11:44:54;8.6;7.4;6
61879;PMS7003;47817;52.798;27.544;2022-12-29T11:49:55;12.5;7.3;5.8
61879;PMS7003;47817;52.798;27.544;2022-12-29T11:55:07;11;8.6;6.4
61879;PMS7003;47817;52.798;27.544;2022-12-29T11:59:56;9.4;7;5.2
61879;PMS7003;47817;52.798;27.544;2022-12-29T12:04:30;7.2;5;4.8
61879;PMS7003;47817;52.798;27.544;2022-12-29T12:09:53;7.6;6.2;4.8
61879;PMS7003;47817;52.798;27.544;2022-12-29T12:14:56;7.2;4.4;3.8
61879;PMS7003;47817;52.798;27.544;2022-12-29T12:19:43;6.8;5.3;3.8
61879;PMS7003;47817;52.798;27.544;2022-12-29T12:25:16;7.6;6.2;5.2
61879;PMS7003;47817;52.798;27.544;2022-12-29T12:30:16;7;5.2;4.4
61879;PMS7003;47817;52.798;27.544;2022-12-29T12:34:54;7;5.2;4.4
61879;PMS7003;47817;52.798;27.544;2022-12-29T12:39:43;6.8;5.8;5
61879;PMS7003;47817;52.798;27.544;2022-12-29T12:44:56;6.6;5;4
61879;PMS7003;47817;52.798;27.544;2022-12-29T12:50:06;5.8;4.8;3.8
61879;PMS7003;47817;52.798;27.544;2022-12-29T12:54:34;7.2;4.6;4.2
61879;PMS7003;47817;52.798;27.544;2022-12-29T12:59:56;5;4.5;2.8
61879;PMS7003;47817;52.798;27.544;2022-12-29T13:05:06;5.8;3.6;2.8
61879;PMS7003;47817;52.798;27.544;2022-12-29T13:10:12;5.2;4.2;3.2
61879;PMS7003;47817;52.798;27.544;2022-12-29T13:15:08;3.6;3.4;2.2
61879;PMS7003;47817;52.798;27.544;2022-12-29T13:19:30;7;4.4;3.4
61879;PMS7003;47817;52.798;27.544;2022-12-29T13:24:32;5;4.6;4.4
61879;PMS7003;47817;52.798;27.544;2022-12-29T13:29:31;3.6;3;2.6
61879;PMS7003;47817;52.798;27.544;2022-12-29T13:35:07;4.6;2.8;2.4
61879;PMS7003;47817;52.798;27.544;2022-12-29T13:40:14;4.4;3.2;3
61879;PMS7003;47817;52.798;27.544;2022-12-29T13:44:43;4.4;3.2;3
61879;PMS7003;47817;52.798;27.544;2022-12-29T13:50:05;4.8;3.4;2.8
61879;PMS7003;47817;52.798;27.544;2022-12-29T13:55:14;3.8;2.8;2.2
61879;PMS7003;47817;52.798;27.544;2022-12-29T13:59:33;3.5;2.5;2.5
61879;PMS7003;47817;52.798;27.544;2022-12-29T14:05:27;2.2;2;1.6
61879;PMS7003;47817;52.798;27.544;2022-12-29T14:09:50;2.2;2;1.6
61879;PMS7003;47817;52.798;27.544;2022-12-29T14:14:52;4;3;2.6
61879;PMS7003;47817;52.798;27.544;2022-12-29T14:19:40;4.2;2.6;1.8
61879;PMS7003;47817;52.798;27.544;2022-12-29T14:25:07;3.8;3.4;2
61879;PMS7003;47817;52.798;27.544;2022-12-29T14:30:48;5.6;3.4;2.6
61879;PMS7003;47817;52.798;27.544;2022-12-29T14:34:43;5.6;3.4;2.6
61879;PMS7003;47817;52.798;27.544;2022-12-29T14:40:02;6;3.8;3.2
61879;PMS7003;47817;52.798;27.544;2022-12-29T14:45:05;4.8;2.4;2
61879;PMS7003;47817;52.798;27.544;2022-12-29T14:49:42;4.8;2.4;2
61879;PMS7003;47817;52.798;27.544;2022-12-29T14:55:28;4;2.6;2.2
61879;PMS7003;47817;52.798;27.544;2022-12-29T15:00:06;4;3;2.3
61879;PMS7003;47817;52.798;27.544;2022-12-29T15:04:53;4.2;2.4;1.6
61879;PMS7003;47817;52.798;27.544;2022-12-29T15:09:41;3.4;2.2;1.8
61879;PMS7003;47817;52.798;27.544;2022-12-29T15:15:16;3.6;2;1.8
61879;PMS7003;47817;52.798;27.544;2022-12-29T15:20:16;4;3;2.6
61879;PMS7003;47817;52.798;27.544;2022-12-29T15:24:30;4;3;2.6
61879;PMS7003;47817;52.798;27.544;2022-12-29T15:30:11;4.8;3.6;3.2
61879;PMS7003;47817;52.798;27.544;2022-12-29T15:34:56;5.4;3.6;2
61879;PMS7003;47817;52.798;27.544;2022-12-29T15:39:42;4.6;2.8;2
61879;PMS7003;47817;52.798;27.544;2022-12-29T15:45:12;6.3;3;2
61879;PMS7003;47817;52.798;27.544;2022-12-29T15:49:56;6.3;3;2
61879;PMS7003;47817;52.798;27.544;2022-12-29T15:54:54;4.4;3.6;3.4
61879;PMS7003;47817;52.798;27.544;2022-12-29T15:59:30;6;4.4;3.6
61879;PMS7003;47817;52.798;27.544;2022-12-29T16:05:07;6.8;4.6;3.8
61879;PMS7003;47817;52.798;27.544;2022-12-29T16:10:21;10.6;8.4;6
61879;PMS7003;47817;52.798;27.544;2022-12-29T16:14:31;10.6;8.4;6
61879;PMS7003;47817;52.798;27.544;2022-12-29T16:20:04;9.4;6;4.6
61879;PMS7003;47817;52.798;27.544;2022-12-29T16:24:55;5.6;4.2;3
61879;PMS7003;47817;52.798;27.544;2022-12-29T16:29:54;5.6;3;2.8
61879;PMS7003;47817;52.798;27.544;2022-12-29T16:35:16;5.8;3.8;2.4
61879;PMS7003;47817;52.798;27.544;2022-12-29T16:39:30;5.8;3.8;2.4
61879;PMS7003;47817;52.798;27.544;2022-12-29T16:44:52;4.2;3.8;3.2
61879;PMS7003;47817;52.798;27.544;2022-12-29T16:49:42;16;12.6;9.4
61879;PMS7003;47817;52.798;27.544;2022-12-29T16:55:14;13.4;10.6;8.2
61879;PMS7003;47817;52.798;27.544;2022-12-29T17:00:17;7;5.4;4.6
61879;PMS7003;47817;52.798;27.544;2022-12-29T17:04:30;7;5.4;4.6
61879;PMS7003;47817;52.798;27.544;2022-12-29T17:10:06;6.8;4.8;3.8
61879;PMS7003;47817;52.798;27.544;2022-12-29T17:15:06;10;9.2;6.4
61879;PMS7003;47817;52.798;27.544;2022-12-29T17:19:30;19;15.2;11.4
61879;PMS7003;47817;52.798;27.544;2022-12-29T17:25:12;7;5.6;4.8
61879;PMS7003;47817;52.798;27.544;2022-12-29T17:29:31;7;5.6;4.8
61879;PMS7003;47817;52.798;27.544;2022-12-29T17:34:30;6.4;4.6;4
61879;PMS7003;47817;52.798;27.544;2022-12-29T17:39:42;18.8;13.4;9.8
61879;PMS7003;47817;52.798;27.544;2022-12-29T17:44:52;17.8;13.3;9.3
61879;PMS7003;47817;52.798;27.544;2022-12-29T17:50:17;5.4;4;2.8
61879;PMS7003;47817;52.798;27.544;2022-12-29T17:54:30;5.4;4;2.8
61879;PMS7003;47817;52.798;27.544;2022-12-29T17:59:42;5;3.6;2.6
61879;PMS7003;47817;52.798;27.544;2022-12-29T18:05:04;3.8;2.8;2
61879;PMS7003;47817;52.798;27.544;2022-12-29T18:10:16;4.8;4;3.5
61879;PMS7003;47817;52.798;27.544;2022-12-29T18:15:16;4.6;3.8;3.4
61879;PMS7003;47817;52.798;27.544;2022-12-29T18:19:43;4.6;3.8;3.4
61879;PMS7003;47817;52.798;27.544;2022-12-29T18:24:30;4;3.6;3
61879;PMS7003;47817;52.798;27.544;2022-12-29T18:29:30;8.4;6;4.6
61879;PMS7003;47817;52.798;27.544;2022-12-29T18:35:16;16.2;11;8.6
61879;PMS7003;47817;52.798;27.544;2022-12-29T18:40:16;7.4;6.8;5
61879;PMS7003;47817;52.798;27.544;2022-12-29T18:44:44;7.4;6.8;5
61879;PMS7003;47817;52.798;27.544;2022-12-29T18:50:06;6.4;4.6;3
61879;PMS7003;47817;52.798;27.544;2022-12-29T18:54:42;6.6;4.2;4
61879;PMS7003;47817;52.798;27.544;2022-12-29T19:00:16;7;4.8;3.8
61879;PMS7003;47817;52.798;27.544;2022-12-29T19:05:18;5.2;4.4;3.2
61879;PMS7003;47817;52.798;27.544;2022-12-29T19:09:30;5.2;4.4;3.2
61879;PMS7003;47817;52.798;27.544;2022-12-29T19:14:30;5.8;4.5;3.8
61879;PMS7003;47817;52.798;27.544;2022-12-29T19:19:42;4.6;3.6;3.2
61879;PMS7003;47817;52.798;27.544;2022-12-29T19:25:16;12.8;11.4;7.4
61879;PMS7003;47817;52.798;27.544;2022-12-29T19:30:14;7.2;5.4;3.4
61879;PMS7003;47817;52.798;27.544;2022-12-29T19:34:42;7.2;5.4;3.4
61879;PMS7003;47817;52.798;27.544;2022-12-29T19:40:04;6.8;5.5;4.5
61879;PMS7003;47817;52.798;27.544;2022-12-29T19:44:32;6;4.6;4.2
61879;PMS7003;47817;52.798;27.544;2022-12-29T19:50:16;17.8;13.2;9.6
61879;PMS7003;47817;52.798;27.544;2022-12-29T19:55:14;40.2;30.8;20.6
61879;PMS7003;47817;52.798;27.544;2022-12-29T19:59:54;40.2;30.8;20.6
61879;PMS7003;47817;52.798;27.544;2022-12-29T20:04:54;10.4;8.2;6.6
61879;PMS7003;47817;52.798;27.544;2022-12-29T20:10:02;11.8;8.8;6.8
61879;PMS7003;47817;52.798;27.544;2022-12-29T20:15:16;11;9.4;7
61879;PMS7003;47817;52.798;27.544;2022-12-29T20:20:16;19;14.2;10.8
61879;PMS7003;47817;52.798;27.544;2022-12-29T20:24:42;19;14.2;10.8
61879;PMS7003;47817;52.798;27.544;2022-12-29T20:29:54;13.6;10.2;8
61879;PMS7003;47817;52.798;27.544;2022-12-29T20:35:04;8.6;5.2;4.6
61879;PMS7003;47817;52.798;27.544;2022-12-29T20:40:12;6.6;5.4;5
61879;PMS7003;47817;52.798;27.544;2022-12-29T20:45:16;7.6;5.4;4
61879;PMS7003;47817;52.798;27.544;2022-12-29T20:49:52;7.6;5.4;4
61879;PMS7003;47817;52.798;27.544;2022-12-29T20:54:42;6.4;4.8;3.8
61879;PMS7003;47817;52.798;27.544;2022-12-29T20:59:30;7.8;5.6;4.4
61879;PMS7003;47817;52.798;27.544;2022-12-29T21:05:04;6.8;5.4;4.6
61879;PMS7003;47817;52.798;27.544;2022-12-29T21:10:14;25.2;19.6;14
61879;PMS7003;47817;52.798;27.544;2022-12-29T21:14:42;25.2;19.6;14
61879;PMS7003;47817;52.798;27.544;2022-12-29T21:20:06;51;39.8;26.4
61879;PMS7003;47817;52.798;27.544;2022-12-29T21:25:06;13.2;10;7.8
61879;PMS7003;47817;52.798;27.544;2022-12-29T21:30:06;7.8;6.6;4.8
61879;PMS7003;47817;52.798;27.544;2022-12-29T21:35:06;9;6.2;4.8
61879;PMS7003;47817;52.798;27.544;2022-12-29T21:39:54;8;5.4;4.8
61879;PMS7003;47817;52.798;27.544;2022-12-29T21:44:52;9.3;5.3;4.8
61879;PMS7003;47817;52.798;27.544;2022-12-29T21:49:54;5.8;4.8;4.4
61879;PMS7003;47817;52.798;27.544;2022-12-29T21:54:54;9;6.4;5.6
61879;PMS7003;47817;52.798;27.544;2022-12-29T21:59:54;6.4;6;5.2
61879;PMS7003;47817;52.798;27.544;2022-12-29T22:04:30;14;10.4;7.2
61879;PMS7003;47817;52.798;27.544;2022-12-29T22:10:14;16;12.8;8.6
61879;PMS7003;47817;52.798;27.544;2022-12-29T22:15:04;16;12.8;8.6
61879;PMS7003;47817;52.798;27.544;2022-12-29T22:20:04;13;10.3;6.5
61879;PMS7003;47817;52.798;27.544;2022-12-29T22:24:42;7.4;6.6;5.2
61879;PMS7003;47817;52.798;27.544;2022-12-29T22:29:52;9.4;7;5.4
61879;PMS7003;47817;52.798;27.544;2022-12-29T22:35:16;8.6;6.8;4.6
61879;PMS7003;47817;52.798;27.544;2022-12-29T22:39:42;8.6;6.8;4.6
61879;PMS7003;47817;52.798;27.544;2022-12-29T22:44:52;7;5.6;4.2
61879;PMS7003;47817;52.798;27.544;2022-12-29T22:49:52;7.8;7.2;6.2
61879;PMS7003;47817;52.798;27.544;2022-12-29T22:54:40;11.6;7.4;6.2
61879;PMS7003;47817;52.798;27.544;2022-12-29T23:00:12;9;7.6;5.6
61879;PMS7003;47817;52.798;27.544;2022-12-29T23:04:40;9;7.6;5.6
61879;PMS7003;47817;52.798;27.544;2022-12-29T23:10:00;9.6;7.6;6
61879;PMS7003;47817;52.798;27.544;2022-12-29T23:14:38;11;8;5.5
61879;PMS7003;47817;52.798;27.544;2022-12-29T23:19:50;8.8;7;5.8
61879;PMS7003;47817;52.798;27.544;2022-12-29T23:25:10;8;6.6;5.8
61879;PMS7003;47817;52.798;27.544;2022-12-29T23:29:38;10.6;8.2;6.4
61879;PMS7003;47817;52.798;27.544;2022-12-29T23:34:30;9;8.4;6.4
61879;PMS7003;47817;52.798;27.544;2022-12-29T23:39:50;10.3;7;5
61879;PMS7003;47817;52.798;27.544;2022-12-29T23:44:30;7.4;5;4.4
61879;PMS7003;47817;52.798;27.544;2022-12-29T23:50:12;7.2;6.4;4.6
61879;PMS7003;47817;52.798;27.544;2022-12-29T23:54:32;7.2;6.4;4.6
